Time;durP1;ratioP1;P1;durP2;ratioP2;P2;SDS_P1;SDS_P2;PMS_P1;PMS_P2;Temp;Humidity;BMP_temperature;BMP_pressure;BME280_temperature;BME280_humidity;BME280_pressure;Samples;Min_cycle;Max_cycle;Signal;HPM_P1;HPM_P2
2021/06/14 04:00:41;;;;;;;5.88;5.38;;;12.10;99.90;;;;;;5789429;23;20268;-68
2021/06/14 04:03:07;;;;;;;6.13;5.60;;;12.20;99.90;;;;;;4935238;29;20210;-68
2021/06/14 04:05:34;;;;;;;8.02;6.20;;;12.20;99.90;;;;;;4915717;28;20228;-69
2021/06/14 04:08:01;;;;;;;8.43;5.60;;;12.20;99.90;;;;;;4916462;29;20213;-70
2021/06/14 04:10:27;;;;;;;5.57;5.07;;;12.20;99.90;;;;;;4916263;29;20237;-70
2021/06/14 04:12:54;;;;;;;6.05;5.55;;;12.30;99.90;;;;;;4916293;29;20585;-70
2021/06/14 04:15:20;;;;;;;5.43;5.03;;;12.30;99.90;;;;;;4916035;29;20548;-70
2021/06/14 04:17:48;;;;;;;5.95;5.45;;;12.40;99.90;;;;;;4916565;29;20243;-70
2021/06/14 04:20:17;;;;;;;5.70;5.20;;;12.40;99.90;;;;;;4915635;29;20373;-70
2021/06/14 04:22:46;;;;;;;5.97;5.32;;;12.60;99.90;;;;;;4915970;29;20210;-70
2021/06/14 04:25:13;;;;;;;7.83;5.53;;;13.20;99.90;;;;;;4916002;29;20211;-70
2021/06/14 04:27:40;;;;;;;4.43;4.07;;;14.10;99.90;;;;;;4916347;29;20847;-70
2021/06/14 04:30:08;;;;;;;5.20;4.73;;;14.80;99.90;;;;;;4915898;29;20946;-68
2021/06/14 04:32:35;;;;;;;5.23;4.83;;;15.30;99.90;;;;;;4915920;29;20470;-69
2021/06/14 04:35:03;;;;;;;5.60;4.70;;;15.70;99.90;;;;;;4915150;29;20478;-69
2021/06/14 04:37:29;;;;;;;5.33;4.20;;;16.30;99.90;;;;;;4916167;29;20490;-70
2021/06/14 04:39:56;;;;;;;4.80;4.43;;;16.80;99.90;;;;;;4915695;29;20470;-69
2021/06/14 04:42:23;;;;;;;4.80;4.43;;;17.50;99.90;;;;;;4915968;29;20494;-69
2021/06/14 04:44:50;;;;;;;5.17;4.77;;;18.20;99.90;;;;;;4915816;29;20552;-69
2021/06/14 04:47:16;;;;;;;4.03;3.83;;;18.70;99.90;;;;;;4916110;29;20469;-69
2021/06/14 04:49:43;;;;;;;4.23;4.03;;;19.20;99.90;;;;;;4915482;29;20819;-67
2021/06/14 04:52:11;;;;;;;4.30;4.00;;;19.40;99.90;;;;;;4915715;29;20577;-67
2021/06/14 04:54:37;;;;;;;4.73;4.43;;;19.80;99.90;;;;;;4932953;29;20477;-67
2021/06/14 04:57:05;;;;;;;3.90;3.70;;;20.00;99.90;;;;;;4934921;29;20465;-67
2021/06/14 04:59:32;;;;;;;4.33;4.20;;;20.30;99.90;;;;;;4934597;29;20465;-68
2021/06/14 05:01:58;;;;;;;4.50;4.17;;;20.70;99.90;;;;;;4934708;28;20509;-68
2021/06/14 05:04:25;;;;;;;4.10;4.00;;;21.20;99.90;;;;;;4933797;29;20849;-69
2021/06/14 05:06:52;;;;;;;3.90;3.60;;;21.40;99.90;;;;;;4934818;29;20470;-68
2021/06/14 05:09:20;;;;;;;4.10;3.90;;;21.90;99.90;;;;;;4934758;29;20472;-69
2021/06/14 05:11:47;;;;;;;3.93;3.70;;;22.30;99.90;;;;;;4935327;29;20481;-67
2021/06/14 05:14:15;;;;;;;3.43;3.33;;;22.50;99.90;;;;;;4938635;29;20573;-67
2021/06/14 05:16:41;;;;;;;3.20;3.10;;;22.50;99.90;;;;;;4938278;29;20852;-67
2021/06/14 05:19:08;;;;;;;4.07;3.87;;;22.80;99.90;;;;;;4938539;29;20839;-67
2021/06/14 05:21:35;;;;;;;3.30;3.00;;;23.00;99.90;;;;;;4937567;29;20943;-68
2021/06/14 05:24:02;;;;;;;3.17;3.07;;;23.20;99.90;;;;;;4938311;28;20488;-68
2021/06/14 05:26:30;;;;;;;4.30;4.00;;;23.30;99.90;;;;;;4938209;29;20468;-67
2021/06/14 05:28:56;;;;;;;3.70;3.40;;;23.30;99.90;;;;;;4938443;29;20474;-67
2021/06/14 05:31:23;;;;;;;4.20;3.87;;;23.20;99.90;;;;;;4938002;29;20585;-67
2021/06/14 05:33:50;;;;;;;4.03;3.73;;;23.70;99.90;;;;;;4937711;29;20488;-69
2021/06/14 05:36:16;;;;;;;3.80;3.60;;;23.90;99.50;;;;;;4937040;29;20473;-69
2021/06/14 05:38:43;;;;;;;3.73;3.50;;;24.10;99.20;;;;;;4938280;29;20495;-69
2021/06/14 05:41:10;;;;;;;3.50;3.30;;;24.00;98.60;;;;;;4937885;29;20904;-69
2021/06/14 05:43:38;;;;;;;3.37;3.17;;;24.10;98.90;;;;;;4923064;29;20471;-69
2021/06/14 05:46:04;;;;;;;3.40;3.20;;;24.30;97.90;;;;;;4918634;29;20480;-69
2021/06/14 05:48:31;;;;;;;4.33;4.03;;;24.30;97.70;;;;;;4918894;29;20944;-69
2021/06/14 05:50:58;;;;;;;3.77;3.47;;;24.50;97.50;;;;;;4918321;29;20485;-69
2021/06/14 05:53:24;;;;;;;4.00;3.70;;;24.60;97.20;;;;;;4918914;29;20473;-69
2021/06/14 05:55:51;;;;;;;3.47;3.33;;;24.80;95.70;;;;;;4918924;29;20476;-69
2021/06/14 05:58:18;;;;;;;3.67;3.47;;;24.90;95.30;;;;;;4919004;29;20490;-69
2021/06/14 06:00:46;;;;;;;3.50;3.07;;;24.90;95.20;;;;;;4918668;29;21014;-69
2021/06/14 06:03:13;;;;;;;3.67;3.47;;;24.90;95.40;;;;;;4918537;29;20501;-69
2021/06/14 06:05:39;;;;;;;3.70;3.40;;;24.90;95.50;;;;;;4918427;29;20480;-69
2021/06/14 06:08:06;;;;;;;4.10;3.60;;;25.00;94.90;;;;;;4919163;29;20476;-67
2021/06/14 06:10:33;;;;;;;3.53;3.33;;;25.10;94.80;;;;;;4918085;29;20500;-70
2021/06/14 06:13:01;;;;;;;3.60;3.27;;;25.00;95.40;;;;;;4918132;29;20775;-70
2021/06/14 06:15:27;;;;;;;3.60;3.30;;;25.10;95.10;;;;;;4917919;29;20516;-69
2021/06/14 06:17:56;;;;;;;3.70;3.50;;;25.70;94.50;;;;;;4917696;29;20990;-70
2021/06/14 06:20:23;;;;;;;3.63;3.40;;;25.90;93.40;;;;;;4916986;29;20469;-70
2021/06/14 06:22:51;;;;;;;3.50;3.33;;;26.00;93.50;;;;;;4917509;29;20464;-70
2021/06/14 06:25:20;;;;;;;4.50;4.03;;;26.40;92.80;;;;;;4917332;29;20945;-70
2021/06/14 06:27:48;;;;;;;4.07;3.87;;;26.80;92.60;;;;;;4918395;29;20472;-70
2021/06/14 06:30:17;;;;;;;3.90;3.60;;;27.00;91.00;;;;;;4918004;29;20504;-70
2021/06/14 06:32:43;;;;;;;3.50;3.20;;;27.10;90.70;;;;;;4926210;28;20976;-68
2021/06/14 06:35:13;;;;;;;4.17;3.73;;;27.30;90.60;;;;;;4936471;29;20469;-68
2021/06/14 06:37:39;;;;;;;3.90;3.70;;;27.50;89.30;;;;;;4937149;29;20476;-68
2021/06/14 06:40:07;;;;;;;4.33;3.93;;;27.60;89.30;;;;;;4936713;29;20468;-68
2021/06/14 06:42:34;;;;;;;3.80;3.50;;;27.80;87.90;;;;;;4937059;29;20482;-68
2021/06/14 06:45:00;;;;;;;4.60;3.83;;;27.50;86.60;;;;;;4936452;29;20475;-67
2021/06/14 06:47:27;;;;;;;3.87;3.57;;;27.70;87.50;;;;;;4936992;29;20488;-67
2021/06/14 06:49:54;;;;;;;3.67;3.47;;;27.70;85.10;;;;;;4936111;28;20882;-68
2021/06/14 06:52:22;;;;;;;3.07;2.97;;;27.60;85.30;;;;;;4936428;29;20522;-69
2021/06/14 06:54:49;;;;;;;5.40;4.00;;;27.80;86.10;;;;;;4936443;29;20464;-69
2021/06/14 06:57:16;;;;;;;3.10;2.87;;;28.10;84.40;;;;;;4936834;29;20473;-69
2021/06/14 06:59:43;;;;;;;3.60;3.47;;;28.20;83.80;;;;;;4936574;29;20508;-69
2021/06/14 07:02:10;;;;;;;3.50;3.30;;;27.60;82.60;;;;;;4936071;28;20505;-69
2021/06/14 07:04:37;;;;;;;4.13;3.70;;;27.60;85.00;;;;;;4924334;29;20838;-69
2021/06/14 07:07:04;;;;;;;3.20;3.10;;;28.10;84.40;;;;;;4917541;29;20466;-69
2021/06/14 07:09:32;;;;;;;3.90;3.60;;;28.50;82.20;;;;;;4917009;29;20824;-67
2021/06/14 07:11:59;;;;;;;4.63;3.60;;;28.60;81.40;;;;;;4917035;29;20599;-69
2021/06/14 07:14:26;;;;;;;3.80;3.60;;;28.10;81.10;;;;;;4916898;29;20476;-69
2021/06/14 07:16:53;;;;;;;4.00;3.80;;;28.00;81.50;;;;;;4917648;29;20856;-69
2021/06/14 07:19:19;;;;;;;4.30;3.93;;;28.00;79.50;;;;;;4917045;29;20500;-69
2021/06/14 07:21:46;;;;;;;3.60;3.40;;;27.80;80.30;;;;;;4916967;29;20494;-69
2021/06/14 07:24:13;;;;;;;4.03;3.83;;;27.70;80.10;;;;;;4916796;29;20492;-69
2021/06/14 07:26:41;;;;;;;4.00;3.80;;;27.90;77.70;;;;;;4916805;29;20473;-69
2021/06/14 07:29:07;;;;;;;4.30;4.00;;;27.60;79.30;;;;;;4917274;29;20473;-69
2021/06/14 07:31:34;;;;;;;4.20;3.60;;;27.90;78.80;;;;;;4916765;29;20489;-69
2021/06/14 07:34:02;;;;;;;3.37;3.23;;;27.90;78.20;;;;;;4916872;29;20468;-69
2021/06/14 07:36:29;;;;;;;4.27;3.90;;;27.70;77.40;;;;;;4915679;29;20481;-69
2021/06/14 07:38:57;;;;;;;3.60;3.40;;;27.30;78.40;;;;;;4916694;29;20611;-69
2021/06/14 07:41:23;;;;;;;3.60;3.43;;;27.30;78.10;;;;;;4916450;29;20489;-69
2021/06/14 07:43:52;;;;;;;4.03;3.83;;;27.10;78.60;;;;;;4925820;29;20491;-69
2021/06/14 07:46:20;;;;;;;4.57;4.30;;;27.10;78.90;;;;;;4935626;29;20465;-67
2021/06/14 07:48:47;;;;;;;4.87;4.10;;;27.40;78.30;;;;;;4935495;29;20479;-67
2021/06/14 07:51:13;;;;;;;4.40;4.10;;;27.50;78.60;;;;;;4934876;29;20500;-67
2021/06/14 07:53:40;;;;;;;4.27;4.07;;;27.70;76.90;;;;;;4935283;29;20512;-67
2021/06/14 07:56:08;;;;;;;3.63;3.43;;;27.40;76.70;;;;;;4935503;29;20467;-67
2021/06/14 07:58:35;;;;;;;4.60;4.20;;;27.30;76.40;;;;;;4935665;29;20492;-67
2021/06/14 08:01:03;;;;;;;4.10;3.70;;;27.20;76.50;;;;;;4935198;29;20507;-67
2021/06/14 08:03:30;;;;;;;4.20;4.00;;;27.50;77.50;;;;;;4935113;29;20579;-67
2021/06/14 08:05:57;;;;;;;6.20;4.47;;;27.50;76.90;;;;;;4934518;29;20553;-67
2021/06/14 08:08:24;;;;;;;5.00;3.90;;;27.70;76.00;;;;;;4935190;29;20503;-67
2021/06/14 08:10:51;;;;;;;4.07;3.80;;;27.60;76.40;;;;;;4934859;28;20936;-68
2021/06/14 08:13:18;;;;;;;4.37;4.17;;;27.60;76.70;;;;;;4935237;29;20509;-68
2021/06/14 08:15:45;;;;;;;4.77;4.43;;;28.00;75.90;;;;;;4934902;29;20495;-68
2021/06/14 08:18:23;;;;;;;3.73;3.47;;;27.90;75.10;;;;;;4935285;29;20496;-68
2021/06/14 08:21:03;;;;;;;4.37;4.17;;;27.90;75.50;;;;;;4934181;29;20873;-68
2021/06/14 08:26:20;;;;;;;4.37;4.07;;;27.80;75.00;;;;;;4935086;29;20452;-68
2021/06/14 08:28:47;;;;;;;4.10;3.80;;;27.70;76.40;;;;;;4935031;29;20561;-68
2021/06/14 08:31:14;;;;;;;4.33;3.93;;;27.90;76.70;;;;;;4934067;29;20485;-68
2021/06/14 08:33:42;;;;;;;4.03;3.73;;;27.50;74.80;;;;;;4931743;29;20468;-68
2021/06/14 08:36:08;;;;;;;5.33;4.30;;;27.50;76.10;;;;;;4934164;29;20461;-68
2021/06/14 08:38:35;;;;;;;3.30;3.20;;;27.40;76.90;;;;;;4934871;29;20488;-68
2021/06/14 08:41:02;;;;;;;4.30;4.10;;;27.70;76.50;;;;;;4934815;29;20593;-68
2021/06/14 08:43:29;;;;;;;3.90;3.60;;;27.80;76.30;;;;;;4934712;29;20465;-68
2021/06/14 08:45:57;;;;;;;4.33;4.00;;;27.80;75.90;;;;;;4934461;29;20474;-68
2021/06/14 08:48:25;;;;;;;3.43;3.30;;;27.70;76.00;;;;;;4934803;29;20462;-68
2021/06/14 08:50:53;;;;;;;4.00;3.83;;;27.90;76.50;;;;;;4934039;29;20828;-68
2021/06/14 08:53:20;;;;;;;4.87;4.57;;;28.20;76.00;;;;;;4934745;29;20477;-68
2021/06/14 08:55:47;;;;;;;4.10;3.80;;;28.00;74.50;;;;;;4934649;29;20473;-68
2021/06/14 08:58:14;;;;;;;4.57;4.27;;;27.40;76.00;;;;;;4934545;29;20472;-68
2021/06/14 09:00:41;;;;;;;3.87;3.77;;;27.10;76.00;;;;;;4934513;29;20501;-68
2021/06/14 09:03:07;;;;;;;4.07;3.77;;;26.90;78.40;;;;;;4935151;29;20495;-68
2021/06/14 09:05:34;;;;;;;3.30;3.13;;;27.00;76.60;;;;;;4915594;29;20808;-68
2021/06/14 09:08:06;;;;;;;3.80;3.60;;;26.70;76.80;;;;;;4915740;29;20480;-68
2021/06/14 09:10:35;;;;;;;3.87;3.67;;;26.60;78.00;;;;;;4915387;29;20484;-68
2021/06/14 09:13:16;;;;;;;3.50;3.20;;;26.50;78.80;;;;;;4915893;29;20476;-69
2021/06/14 09:15:45;;;;;;;3.97;3.80;;;26.40;78.70;;;;;;4915532;29;20480;-68
2021/06/14 09:18:16;;;;;;;4.53;4.20;;;26.50;77.50;;;;;;4915780;29;20495;-68
2021/06/14 09:20:54;;;;;;;3.97;3.87;;;26.30;78.80;;;;;;4914908;29;20485;-68
2021/06/14 09:23:22;;;;;;;4.63;4.23;;;26.20;78.60;;;;;;4915364;29;20470;-68
2021/06/14 09:25:50;;;;;;;4.67;4.30;;;26.40;79.20;;;;;;4915347;29;20474;-68
2021/06/14 09:28:17;;;;;;;4.27;4.07;;;26.00;79.00;;;;;;4916147;29;20934;-68
2021/06/14 09:30:44;;;;;;;4.00;3.67;;;26.20;79.80;;;;;;4915237;29;20508;-68
2021/06/14 09:33:22;;;;;;;4.07;3.80;;;26.30;78.70;;;;;;4915308;29;20491;-68
2021/06/14 09:35:49;;;;;;;3.90;3.70;;;26.20;80.00;;;;;;4914632;29;20476;-67
2021/06/14 09:38:18;;;;;;;4.27;4.07;;;26.20;79.70;;;;;;4915510;29;20476;-66
2021/06/14 09:40:47;;;;;;;4.53;4.20;;;26.40;80.20;;;;;;4915281;29;20487;-67
2021/06/14 09:43:24;;;;;;;4.60;4.27;;;26.30;79.00;;;;;;4926843;29;20490;-67
2021/06/14 09:45:50;;;;;;;3.90;3.60;;;26.10;79.40;;;;;;4934334;29;20468;-67
2021/06/14 09:48:18;;;;;;;4.23;3.93;;;26.00;81.00;;;;;;4934418;29;20474;-66
2021/06/14 09:50:47;;;;;;;4.10;3.73;;;26.00;80.40;;;;;;4934092;29;20491;-67
2021/06/14 09:53:15;;;;;;;3.70;3.60;;;26.00;80.00;;;;;;4934418;29;20470;-67
2021/06/14 09:55:46;;;;;;;4.50;3.97;;;26.10;79.70;;;;;;4934198;29;20466;-67
2021/06/14 09:58:22;;;;;;;3.67;3.47;;;26.10;78.30;;;;;;4935607;29;20846;-67
2021/06/14 10:00:51;;;;;;;3.93;3.40;;;25.90;78.40;;;;;;4937149;29;20527;-67
2021/06/14 10:03:18;;;;;;;5.77;3.60;;;25.70;79.60;;;;;;4937617;29;20841;-67
2021/06/14 10:05:46;;;;;;;6.67;4.20;;;25.70;80.00;;;;;;4936941;29;20463;-67
2021/06/14 10:08:13;;;;;;;3.00;2.90;;;25.60;81.50;;;;;;4937646;29;20969;-67
2021/06/14 10:10:41;;;;;;;3.40;3.13;;;25.40;80.70;;;;;;4937879;29;20486;-67
2021/06/14 10:13:07;;;;;;;3.53;3.30;;;25.50;81.10;;;;;;4937616;29;20650;-68
2021/06/14 10:15:37;;;;;;;3.80;3.50;;;25.40;81.10;;;;;;4937082;29;20465;-67
2021/06/14 10:18:05;;;;;;;3.80;3.50;;;25.40;81.90;;;;;;4937665;29;20832;-67
2021/06/14 10:20:36;;;;;;;4.30;4.00;;;25.40;80.80;;;;;;4936280;29;20500;-68
2021/06/14 10:23:03;;;;;;;3.60;3.40;;;25.40;81.30;;;;;;4937003;29;20472;-69
2021/06/14 10:25:30;;;;;;;3.80;3.60;;;25.50;81.80;;;;;;4936788;29;20496;-69
2021/06/14 10:27:58;;;;;;;4.53;3.33;;;25.60;80.50;;;;;;4937095;29;20814;-69
2021/06/14 10:30:26;;;;;;;3.23;3.13;;;25.30;80.50;;;;;;4936574;29;20993;-68
2021/06/14 10:32:56;;;;;;;3.63;3.33;;;25.40;80.50;;;;;;4931483;29;20631;-69
2021/06/14 10:35:22;;;;;;;3.10;2.90;;;25.50;82.20;;;;;;4936216;29;20473;-67
2021/06/14 10:37:53;;;;;;;4.23;3.83;;;25.40;82.20;;;;;;4937074;28;20466;-68
2021/06/14 10:40:23;;;;;;;3.73;3.53;;;25.60;81.60;;;;;;4936691;29;20490;-67
2021/06/14 10:42:49;;;;;;;4.83;3.70;;;25.50;81.80;;;;;;4936541;29;20469;-67
2021/06/14 10:45:19;;;;;;;4.00;3.60;;;25.60;82.40;;;;;;4936682;29;20469;-69
2021/06/14 10:47:47;;;;;;;3.07;2.90;;;25.50;80.40;;;;;;4936800;29;20500;-68
2021/06/14 10:50:19;;;;;;;3.90;3.60;;;25.40;81.30;;;;;;4935880;29;20469;-68
2021/06/14 10:52:47;;;;;;;4.30;4.00;;;25.50;82.00;;;;;;4936487;29;20470;-68
2021/06/14 10:55:17;;;;;;;3.90;3.57;;;25.50;82.40;;;;;;4936615;29;20915;-68
2021/06/14 10:57:44;;;;;;;4.80;4.40;;;25.60;81.30;;;;;;4936951;29;20465;-68
2021/06/14 11:00:25;;;;;;;4.17;3.90;;;25.60;82.00;;;;;;4936298;29;20489;-68
2021/06/14 11:02:54;;;;;;;4.10;3.90;;;25.60;81.60;;;;;;4936637;29;20470;-68
2021/06/14 11:05:35;;;;;;;3.80;3.60;;;25.70;82.50;;;;;;4920781;29;20465;-68
2021/06/14 11:08:17;;;;;;;4.20;3.73;;;25.70;82.60;;;;;;4920410;29;20578;-66
2021/06/14 11:10:45;;;;;;;4.40;3.90;;;25.90;82.30;;;;;;4918411;29;20494;-66
2021/06/14 11:13:13;;;;;;;4.17;3.90;;;26.00;81.70;;;;;;4918681;29;20534;-67
2021/06/14 11:15:42;;;;;;;3.60;3.40;;;26.00;82.40;;;;;;4917472;29;20470;-67
2021/06/14 11:18:20;;;;;;;3.90;3.60;;;26.00;81.60;;;;;;4917333;29;20494;-66
2021/06/14 11:20:48;;;;;;;4.13;3.43;;;25.90;80.40;;;;;;4916134;29;20495;-66
2021/06/14 11:23:20;;;;;;;2.97;2.87;;;26.00;80.30;;;;;;4917161;29;20485;-66
2021/06/14 11:25:47;;;;;;;3.43;3.23;;;26.10;80.70;;;;;;4917028;29;20470;-66
2021/06/14 11:28:30;;;;;;;3.90;3.27;;;26.10;80.20;;;;;;4916962;29;20483;-68
2021/06/14 11:30:58;;;;;;;3.10;3.00;;;26.10;80.90;;;;;;4917472;29;20486;-67
2021/06/14 11:33:27;;;;;;;3.10;2.83;;;26.20;79.50;;;;;;4916949;29;20492;-67
2021/06/14 11:35:55;;;;;;;3.67;3.40;;;26.10;79.40;;;;;;4916729;29;20470;-68
2021/06/14 11:38:24;;;;;;;3.33;3.13;;;26.20;79.80;;;;;;4918085;29;20471;-68
2021/06/14 11:40:53;;;;;;;3.40;3.10;;;26.40;79.50;;;;;;4916757;29;20494;-68
2021/06/14 11:43:20;;;;;;;3.67;3.37;;;26.50;79.80;;;;;;4921838;29;20829;-68
2021/06/14 11:45:49;;;;;;;3.20;3.00;;;26.50;79.50;;;;;;4935841;29;20536;-68
2021/06/14 11:48:21;;;;;;;3.40;3.20;;;26.60;80.20;;;;;;4935547;29;20462;-68
2021/06/14 11:50:49;;;;;;;3.70;3.50;;;26.70;80.70;;;;;;4934566;29;20987;-68
2021/06/14 11:53:17;;;;;;;3.60;3.33;;;26.90;79.70;;;;;;4935444;28;20487;-68
2021/06/14 11:55:45;;;;;;;3.97;3.70;;;26.90;80.20;;;;;;4935935;29;20489;-68
2021/06/14 11:58:13;;;;;;;3.03;2.93;;;26.80;79.90;;;;;;4935259;29;20832;-69
2021/06/14 12:00:42;;;;;;;3.80;3.30;;;26.90;79.50;;;;;;4935176;29;20504;-67
2021/06/14 12:03:20;;;;;;;3.73;3.40;;;26.90;78.60;;;;;;4935253;29;20849;-67
2021/06/14 12:05:48;;;;;;;2.90;2.67;;;27.20;79.40;;;;;;4934831;29;20466;-67
2021/06/14 12:08:20;;;;;;;3.30;3.00;;;27.30;78.20;;;;;;4935924;29;20474;-67
2021/06/14 12:10:49;;;;;;;2.87;2.77;;;27.40;78.30;;;;;;4935361;28;20528;-68
2021/06/14 12:13:18;;;;;;;3.50;3.30;;;27.50;78.80;;;;;;4935439;29;21011;-69
2021/06/14 12:15:48;;;;;;;2.87;2.70;;;27.50;76.80;;;;;;4935263;29;20475;-69
2021/06/14 12:18:15;;;;;;;2.80;2.70;;;27.60;77.20;;;;;;4935199;29;20988;-68
2021/06/14 12:20:45;;;;;;;3.67;3.47;;;27.60;78.30;;;;;;4934259;29;20861;-68
2021/06/14 12:23:15;;;;;;;3.40;3.00;;;27.70;77.50;;;;;;4934974;29;20793;-69
2021/06/14 12:25:45;;;;;;;4.13;3.40;;;27.70;76.30;;;;;;4935126;29;20472;-68
2021/06/14 12:28:15;;;;;;;3.47;3.33;;;27.70;75.20;;;;;;4935339;29;20471;-69
2021/06/14 12:30:43;;;;;;;3.20;3.10;;;27.60;75.20;;;;;;4934719;29;20501;-69
2021/06/14 12:33:11;;;;;;;3.53;3.10;;;27.60;75.60;;;;;;4931612;29;20829;-68
2021/06/14 12:35:38;;;;;;;2.77;2.70;;;27.60;76.40;;;;;;4934792;29;20544;-67
2021/06/14 12:38:10;;;;;;;2.93;2.57;;;27.60;74.40;;;;;;4935251;29;20466;-67
2021/06/14 12:40:38;;;;;;;3.33;3.03;;;27.50;75.80;;;;;;4934721;29;20493;-67
2021/06/14 12:43:09;;;;;;;3.80;3.33;;;27.60;76.40;;;;;;4934803;28;20482;-67
2021/06/14 12:45:38;;;;;;;3.10;3.00;;;27.50;77.20;;;;;;4934848;29;20505;-67
2021/06/14 12:48:07;;;;;;;3.30;3.10;;;27.60;76.30;;;;;;4935231;29;20969;-67
2021/06/14 12:50:36;;;;;;;3.20;2.90;;;27.90;76.10;;;;;;4934629;29;20507;-67
2021/06/14 12:53:05;;;;;;;3.50;3.30;;;27.90;74.80;;;;;;4934576;29;20480;-66
2021/06/14 12:55:33;;;;;;;3.77;3.57;;;27.80;75.50;;;;;;4935110;28;20484;-68
2021/06/14 12:58:03;;;;;;;3.50;3.30;;;27.80;76.30;;;;;;4935299;29;20473;-68
2021/06/14 13:00:33;;;;;;;4.43;3.53;;;27.90;74.70;;;;;;4934433;29;20504;-68
2021/06/14 13:03:02;;;;;;;3.17;3.07;;;27.90;74.60;;;;;;4934983;29;20480;-68
2021/06/14 13:05:30;;;;;;;4.00;3.77;;;27.70;74.30;;;;;;4916037;29;20490;-68
2021/06/14 13:07:59;;;;;;;3.07;2.97;;;27.70;74.60;;;;;;4916029;29;20466;-68
2021/06/14 13:10:28;;;;;;;3.60;3.33;;;27.80;74.80;;;;;;4915467;29;20561;-68
2021/06/14 13:12:54;;;;;;;4.77;3.30;;;28.00;76.70;;;;;;4915670;29;20466;-68
2021/06/14 13:15:22;;;;;;;3.90;3.60;;;28.10;74.60;;;;;;4915549;29;20845;-68
2021/06/14 13:17:55;;;;;;;4.23;3.93;;;28.10;73.90;;;;;;4915718;29;21014;-68
2021/06/14 13:20:23;;;;;;;3.57;3.37;;;28.10;75.20;;;;;;4914680;29;20490;-66
2021/06/14 13:22:50;;;;;;;3.97;3.63;;;28.00;74.70;;;;;;4915426;29;20472;-66
2021/06/14 13:25:23;;;;;;;3.60;3.40;;;27.90;74.80;;;;;;4915525;29;20494;-66
2021/06/14 13:27:51;;;;;;;3.27;3.13;;;27.80;74.90;;;;;;4915636;29;20468;-66
2021/06/14 13:30:18;;;;;;;3.10;2.87;;;28.00;75.00;;;;;;4915238;29;20479;-67
2021/06/14 13:32:51;;;;;;;2.37;2.30;;;28.00;73.90;;;;;;4916047;29;20596;-67
2021/06/14 13:35:21;;;;;;;2.60;2.40;;;28.00;73.60;;;;;;4918071;29;20561;-67
2021/06/14 13:37:52;;;;;;;2.60;2.50;;;27.90;73.40;;;;;;4919032;29;20530;-67
2021/06/14 13:40:21;;;;;;;3.43;3.20;;;28.00;73.20;;;;;;4918220;29;20486;-66
2021/06/14 13:42:50;;;;;;;7.83;2.83;;;28.10;72.20;;;;;;4919935;29;20471;-67
2021/06/14 13:45:18;;;;;;;3.53;3.33;;;28.20;73.00;;;;;;4937784;29;20564;-67
2021/06/14 13:47:45;;;;;;;2.83;2.73;;;28.10;72.50;;;;;;4937904;29;20489;-68
2021/06/14 13:50:12;;;;;;;2.77;2.57;;;28.20;72.50;;;;;;4937282;29;20469;-67
2021/06/14 13:52:40;;;;;;;2.80;2.70;;;28.10;72.70;;;;;;4938005;29;20476;-67
2021/06/14 13:55:07;;;;;;;2.53;2.43;;;28.20;73.50;;;;;;4937494;28;20959;-69
2021/06/14 13:57:34;;;;;;;2.73;2.63;;;28.20;72.60;;;;;;4937696;29;20462;-68
2021/06/14 14:00:10;;;;;;;2.93;2.80;;;28.30;72.30;;;;;;4937291;29;20485;-68
2021/06/14 14:02:46;;;;;;;2.87;2.67;;;28.20;72.20;;;;;;4938005;29;20473;-68
2021/06/14 14:05:23;;;;;;;2.97;2.87;;;28.30;74.30;;;;;;4937626;29;20465;-68
2021/06/14 14:07:51;;;;;;;5.63;3.40;;;28.40;73.20;;;;;;4937446;29;20476;-68
2021/06/14 14:10:18;;;;;;;2.53;2.43;;;28.40;73.10;;;;;;4937275;29;20977;-68
2021/06/14 14:12:45;;;;;;;2.37;2.27;;;28.40;72.40;;;;;;4937059;29;20915;-68
2021/06/14 14:15:13;;;;;;;2.87;2.67;;;28.40;73.90;;;;;;4937174;29;20473;-68
2021/06/14 14:17:41;;;;;;;2.40;2.40;;;28.40;72.30;;;;;;4937196;29;20469;-68
2021/06/14 14:20:09;;;;;;;2.50;2.40;;;28.30;72.60;;;;;;4936514;29;20580;-69
2021/06/14 14:22:36;;;;;;;3.30;3.00;;;28.30;72.60;;;;;;4937122;29;20519;-69
2021/06/14 14:25:05;;;;;;;3.03;2.83;;;28.30;72.20;;;;;;4937007;29;20477;-68
2021/06/14 14:27:32;;;;;;;2.60;2.60;;;28.30;73.10;;;;;;4936976;29;20473;-69
2021/06/14 14:29:59;;;;;;;2.97;2.77;;;28.40;73.00;;;;;;4936778;29;20495;-69
2021/06/14 14:32:26;;;;;;;3.87;3.60;;;28.60;73.60;;;;;;4925642;29;20490;-69
2021/06/14 14:35:01;;;;;;;2.97;2.80;;;28.60;71.60;;;;;;4917364;29;20470;-69
2021/06/14 14:37:55;;;;;;;2.40;2.40;;;28.70;72.00;;;;;;4917890;29;20486;-68
2021/06/14 14:40:27;;;;;;;2.70;2.60;;;28.60;71.90;;;;;;4916664;29;20498;-68
2021/06/14 14:42:55;;;;;;;2.43;2.33;;;28.60;72.30;;;;;;4918120;29;20471;-68
2021/06/14 14:45:26;;;;;;;2.90;2.80;;;28.70;71.90;;;;;;4916359;29;20475;-69
2021/06/14 14:47:56;;;;;;;2.53;2.53;;;28.80;71.40;;;;;;4917950;29;20464;-68
2021/06/14 14:50:24;;;;;;;2.70;2.50;;;28.90;72.00;;;;;;4916438;29;20476;-67
2021/06/14 14:52:52;;;;;;;3.10;2.90;;;29.00;70.60;;;;;;4917541;29;20471;-67
2021/06/14 14:55:24;;;;;;;2.70;2.50;;;29.00;70.30;;;;;;4917766;29;20464;-67
2021/06/14 14:57:51;;;;;;;2.67;2.57;;;29.00;70.60;;;;;;4917742;29;20471;-68
2021/06/14 15:00:19;;;;;;;3.17;2.97;;;29.10;69.20;;;;;;4917135;29;20960;-68
2021/06/14 15:02:46;;;;;;;2.63;2.53;;;29.10;69.50;;;;;;4917138;29;20484;-68
2021/06/14 15:05:14;;;;;;;2.80;2.70;;;29.20;68.40;;;;;;4928878;29;20816;-69
2021/06/14 15:07:42;;;;;;;2.67;2.47;;;29.30;69.50;;;;;;4936272;29;21035;-68
2021/06/14 15:10:09;;;;;;;2.50;2.40;;;29.20;68.80;;;;;;4936130;29;20576;-68
2021/06/14 15:12:37;;;;;;;2.60;2.50;;;29.10;69.60;;;;;;4936649;29;20471;-68
2021/06/14 15:15:07;;;;;;;2.97;2.70;;;29.10;70.30;;;;;;4935883;28;20487;-68
2021/06/14 15:17:34;;;;;;;2.40;2.30;;;29.10;69.30;;;;;;4936304;29;20506;-68
2021/06/14 15:20:01;;;;;;;2.87;2.77;;;29.10;70.00;;;;;;4935592;29;20470;-68
2021/06/14 15:22:28;;;;;;;3.13;2.93;;;29.10;70.50;;;;;;4935730;28;20489;-68
2021/06/14 15:24:55;;;;;;;3.10;3.00;;;29.10;68.90;;;;;;4936008;28;20470;-67
2021/06/14 15:27:21;;;;;;;2.50;2.40;;;29.10;69.70;;;;;;4936512;29;20516;-67
2021/06/14 15:29:49;;;;;;;3.10;3.00;;;29.10;70.20;;;;;;4935976;29;20837;-68
2021/06/14 15:32:17;;;;;;;2.37;2.27;;;29.20;70.40;;;;;;4936091;29;20497;-68
2021/06/14 15:34:43;;;;;;;4.10;3.17;;;29.20;68.70;;;;;;4935253;29;20477;-67
2021/06/14 15:37:10;;;;;;;2.40;2.30;;;29.30;67.70;;;;;;4935639;29;20490;-67
2021/06/14 15:39:37;;;;;;;2.60;2.43;;;29.40;66.50;;;;;;4935794;29;20478;-67
2021/06/14 15:42:06;;;;;;;2.03;2.00;;;29.40;66.40;;;;;;4935545;29;21029;-67
2021/06/14 15:44:34;;;;;;;2.70;2.30;;;29.40;67.10;;;;;;4935665;29;20549;-67
2021/06/14 15:47:02;;;;;;;2.83;2.70;;;29.30;67.00;;;;;;4935797;28;20494;-67
2021/06/14 15:49:28;;;;;;;2.50;2.40;;;29.40;67.00;;;;;;4935532;29;20468;-67
2021/06/14 15:51:55;;;;;;;2.93;2.77;;;29.40;66.00;;;;;;4936538;29;20487;-69
2021/06/14 15:54:22;;;;;;;2.53;2.50;;;29.40;66.70;;;;;;4922555;29;20559;-67
2021/06/14 15:56:49;;;;;;;3.60;2.83;;;29.40;67.10;;;;;;4918083;29;20491;-68
2021/06/14 15:59:15;;;;;;;2.83;2.73;;;29.20;66.80;;;;;;4918136;29;20473;-69
2021/06/14 16:01:42;;;;;;;3.07;2.97;;;29.20;68.80;;;;;;4917194;29;20833;-68
2021/06/14 16:04:10;;;;;;;3.10;2.97;;;29.20;67.20;;;;;;4917033;29;20473;-69
2021/06/14 16:06:37;;;;;;;2.60;2.50;;;29.20;66.60;;;;;;4916327;29;20475;-69
2021/06/14 16:09:04;;;;;;;3.10;2.90;;;29.20;67.70;;;;;;4916493;29;20491;-69
2021/06/14 16:11:31;;;;;;;2.60;2.60;;;29.30;68.20;;;;;;4916153;29;20509;-69
2021/06/14 16:13:58;;;;;;;4.93;2.97;;;29.20;67.70;;;;;;4915893;29;20494;-67
2021/06/14 16:16:26;;;;;;;2.70;2.60;;;29.10;67.70;;;;;;4916132;29;20472;-67
2021/06/14 16:18:53;;;;;;;3.90;3.40;;;29.20;67.70;;;;;;4916245;29;20511;-67
2021/06/14 16:21:24;;;;;;;2.93;2.73;;;29.30;66.70;;;;;;4915090;29;20494;-67
2021/06/14 16:23:51;;;;;;;2.50;2.50;;;29.20;66.10;;;;;;4916053;29;20513;-67
2021/06/14 16:26:18;;;;;;;2.53;2.40;;;29.20;65.20;;;;;;4915654;29;21069;-67
2021/06/14 16:28:45;;;;;;;2.53;2.43;;;29.10;66.90;;;;;;4916159;29;20472;-67
2021/06/14 16:31:12;;;;;;;3.17;2.03;;;29.20;67.00;;;;;;4915655;29;20536;-67
2021/06/14 16:33:39;;;;;;;2.30;2.20;;;29.10;67.60;;;;;;4931396;29;20521;-67
2021/06/14 16:36:06;;;;;;;2.10;2.10;;;29.10;66.60;;;;;;4934232;29;20944;-66
2021/06/14 16:38:35;;;;;;;2.50;2.40;;;29.10;65.80;;;;;;4934593;29;20509;-67
2021/06/14 16:41:02;;;;;;;2.30;2.20;;;29.10;66.10;;;;;;4934218;29;20503;-67
2021/06/14 16:43:29;;;;;;;2.87;2.67;;;29.10;64.70;;;;;;4934731;28;20533;-66
2021/06/14 16:45:55;;;;;;;2.20;2.20;;;29.10;65.00;;;;;;4934679;29;20508;-66
2021/06/14 16:48:22;;;;;;;2.70;2.53;;;29.10;63.60;;;;;;4934735;29;20470;-70
2021/06/14 16:50:49;;;;;;;2.03;2.00;;;29.00;62.60;;;;;;4933608;29;20502;-68
2021/06/14 16:53:16;;;;;;;1.87;1.87;;;28.90;62.40;;;;;;4934507;29;20466;-68
2021/06/14 16:55:44;;;;;;;2.13;2.13;;;28.90;62.80;;;;;;4934827;29;20477;-69